CVQ weather

Carnarvon Airport
Carnarvon, Western Australia, Australia

Public forecast

Using degrees Celsius for public forecast. Weather courtesy of forecast.io.

Current aviation weather report (METAR) for Carnarvon Airport

Retrieved 2020/07/04 19:00 UTC (13 minutes ago):

YCAR 041900Z AUTO 10006KT 9999 // NCD 15/02 Q1018

Closest aviation forecast (TAF) to Carnarvon Airport

Closest forecast is Learmonth Airport, 160.4 nm (297.1 km) N. Retrieved 2020/07/04 18:00 UTC (1 hour ago):

TAF YPLM 041723Z 0418/0518 VRB05KT CAVOK FM050400 03013KT CAVOK FM051000 VRB05KT CAVOK